Главная страница
METAR-TAF:

METAR-TAF

Аэропорты :

Ängelholm–Helsingborg

Хельсингборг, Швеция

широта: 56-17-46N, долгота: 012-50-50E, высота над уровнем моря: 21 м

Текущие метеонаблюдения

Эта сводка был подготовлена 24 минут назад, в 19:50 UTC
Ветер 6 Узел от восточный
Температура 19°C
Влажность 68%
Давление 1012 hPa
Видимость 10 км и более

METAR: ESTA 121950Z AUTO 09006KT 9999 FEW096/// 19/13 Q1012

Время: 22:14 (20:14 UTC)

Прогноз

Эта сводка был подготовлена 6 часа и 2 минут назад, в 14:12 UTC
Прогноз действительный с 12-го 15 UTC до 12-го 17 UTC
Ветер 5 Узел от западный-юго-западный
Видимость 10 км и более
Отдельные облака на высоте 3500 фута
изменения
С 12-го 15 UTC до 12-го 17 UTC
Ветер 10 Узел от восточно-северо-восточный

TAF: ESTA 121412Z 1215/1217 25005KT 9999 SCT035 BECMG 1215/1217 07010KT

Метеонаблюдения и прогнозы для более 4000 аэропортов (сводки METAR и TAF).

Имеющиеся станции представлены на карте желтыми и красными точками.

Чтобы увидеть название станции, наведите на нее мышь.

Затем щелкните, чтобы увидеть метеонаблюдения и метеопрогнозы.

Управление картой: чтобы увеличить масштаб, щелкните зеленые кнопки с черным крестиком; чтобы уменьшить масштаб, щелкните зеленую кнопку с тире; для просмотра соседних карт щелкайте зеленые стрелки.


METAR-TAF: